Time,TemperatureF,DewpointF,PressureIn,WindDirection,WindDirectionDegrees,WindSpeedMPH,WindSpeedGustMPH,Humidity,HourlyPrecipIn,Conditions,Clouds,dailyrainin,SoftwareType,DateUTC
2013-08-11 00:02:00,69.3,56.6,30.15,North,0,1.6,2.2,64,0.00,,,0.00,pywws,2013-08-11 04:02:00,
2013-08-11 00:03:00,69.3,56.6,30.15,North,0,1.6,2.2,64,0.00,,,0.00,pywws,2013-08-11 04:03:00,
2013-08-11 00:05:00,69.3,56.6,30.15,North,-999,0.7,1.6,64,0.00,,,0.00,pywws,2013-08-11 04:05:00,
2013-08-11 00:06:00,69.1,56.4,30.15,North,-999,1.6,3.1,64,0.00,,,0.00,pywws,2013-08-11 04:06:00,
2013-08-11 00:08:00,69.1,56.4,30.15,North,0,1.6,3.1,64,0.00,,,0.00,pywws,2013-08-11 04:08:00,
2013-08-11 00:14:00,68.9,56.2,30.15,NW,315,0.7,1.6,64,0.00,,,0.00,pywws,2013-08-11 04:14:00,
2013-08-11 00:19:00,68.9,56.2,30.15,NW,315,0.7,1.6,64,0.00,,,0.00,pywws,2013-08-11 04:19:00,
2013-08-11 00:25:00,68.7,56.0,30.16,West,270,0.0,0.7,64,0.00,,,0.00,pywws,2013-08-11 04:25:00,
2013-08-11 00:31:00,68.5,56.3,30.15,NW,315,0.7,1.6,65,0.00,,,0.00,pywws,2013-08-11 04:31:00,
2013-08-11 00:36:00,68.4,56.6,30.15,NW,315,0.7,1.6,66,0.00,,,0.00,pywws,2013-08-11 04:36:00,
2013-08-11 00:42:00,68.2,56.4,30.15,NW,315,1.6,2.2,66,0.00,,,0.00,pywws,2013-08-11 04:42:00,
2013-08-11 00:47:00,68.0,56.2,30.16,NW,315,0.7,2.2,66,0.00,,,0.00,pywws,2013-08-11 04:47:00,
2013-08-11 00:53:00,67.6,56.3,30.15,North,0,0.7,1.6,67,0.00,,,0.00,pywws,2013-08-11 04:53:00,
2013-08-11 00:59:00,67.5,56.1,30.15,NW,315,0.7,1.6,67,0.00,,,0.00,pywws,2013-08-11 04:59:00,
2013-08-11 01:04:00,67.3,55.9,30.15,NW,315,1.6,2.2,67,0.00,,,0.00,pywws,2013-08-11 05:04:00,
2013-08-11 01:11:00,67.1,55.8,30.15,NW,315,0.7,2.2,67,0.00,,,0.00,pywws,2013-08-11 05:11:00,
2013-08-11 01:16:00,66.9,55.6,30.15,North,0,0.0,0.0,67,0.00,,,0.00,pywws,2013-08-11 05:16:00,
2013-08-11 01:21:00,66.7,55.8,30.15,North,0,0.7,1.6,68,0.00,,,0.00,pywws,2013-08-11 05:21:00,
2013-08-11 01:27:00,66.6,56.1,30.15,North,0,0.7,1.6,69,0.00,,,0.00,pywws,2013-08-11 05:27:00,
2013-08-11 01:33:00,66.4,55.9,30.15,NW,315,0.7,2.2,69,0.00,,,0.00,pywws,2013-08-11 05:33:00,
2013-08-11 01:39:00,66.2,56.1,30.16,NW,315,1.6,3.1,70,0.00,,,0.00,pywws,2013-08-11 05:39:00,
2013-08-11 01:44:00,66.0,56.3,30.15,North,0,0.7,1.6,71,0.00,,,0.00,pywws,2013-08-11 05:44:00,
2013-08-11 01:49:00,65.8,56.6,30.16,NW,315,0.7,2.2,72,0.00,,,0.00,pywws,2013-08-11 05:49:00,
2013-08-11 01:55:00,65.7,56.4,30.16,North,0,0.0,0.7,72,0.00,,,0.00,pywws,2013-08-11 05:55:00,
2013-08-11 02:00:00,65.7,56.4,30.16,NW,315,3.1,4.5,72,0.00,,,0.00,pywws,2013-08-11 06:00:00,
2013-08-11 02:05:00,65.5,56.2,30.16,NW,315,0.7,2.2,72,0.00,,,0.00,pywws,2013-08-11 06:05:00,
2013-08-11 02:11:00,65.3,56.0,30.16,North,0,2.2,3.1,72,0.00,,,0.00,pywws,2013-08-11 06:11:00,
2013-08-11 02:17:00,65.1,55.9,30.16,North,0,2.2,3.8,72,0.00,,,0.00,pywws,2013-08-11 06:17:00,
2013-08-11 02:23:00,65.1,55.9,30.17,NW,315,1.6,3.1,72,0.00,,,0.00,pywws,2013-08-11 06:23:00,
2013-08-11 02:28:00,64.9,55.7,30.17,SE,135,1.6,3.1,72,0.00,,,0.00,pywws,2013-08-11 06:28:00,
2013-08-11 02:33:00,64.8,55.9,30.17,SE,135,0.7,2.2,73,0.00,,,0.00,pywws,2013-08-11 06:33:00,
2013-08-11 02:39:00,64.4,55.9,30.17,SE,135,0.0,0.7,74,0.00,,,0.00,pywws,2013-08-11 06:39:00,
2013-08-11 02:45:00,64.0,56.0,30.18,SE,135,0.7,1.6,75,0.00,,,0.00,pywws,2013-08-11 06:45:00,
2013-08-11 02:51:00,63.9,55.8,30.18,NNE,22,1.6,2.2,75,0.00,,,0.00,pywws,2013-08-11 06:51:00,
2013-08-11 02:56:00,63.7,55.6,30.18,NW,315,0.0,0.7,75,0.00,,,0.00,pywws,2013-08-11 06:56:00,
2013-08-11 03:01:00,63.5,55.4,30.18,North,0,0.0,0.0,75,0.00,,,0.00,pywws,2013-08-11 07:01:00,
2013-08-11 03:07:00,63.3,55.6,30.18,NW,315,0.0,0.0,76,0.00,,,0.00,pywws,2013-08-11 07:07:00,
2013-08-11 03:12:00,63.3,55.6,30.18,NW,315,0.0,0.0,76,0.00,,,0.00,pywws,2013-08-11 07:12:00,
2013-08-11 03:17:00,63.1,55.1,30.18,WNW,292,0.7,1.6,75,0.00,,,0.00,pywws,2013-08-11 07:17:00,
2013-08-11 03:23:00,63.1,55.1,30.18,NW,315,0.7,1.6,75,0.00,,,0.00,pywws,2013-08-11 07:23:00,
2013-08-11 03:28:00,63.1,55.1,30.18,East,90,0.0,0.0,75,0.00,,,0.00,pywws,2013-08-11 07:28:00,
2013-08-11 03:34:00,63.1,54.7,30.18,NE,45,0.0,0.0,74,0.00,,,0.00,pywws,2013-08-11 07:34:00,
2013-08-11 03:40:00,62.6,54.2,30.18,East,90,0.0,0.0,74,0.00,,,0.00,pywws,2013-08-11 07:40:00,
2013-08-11 03:45:00,62.6,54.2,30.18,North,0,0.0,0.0,74,0.00,,,0.00,pywws,2013-08-11 07:45:00,
2013-08-11 03:51:00,62.6,54.6,30.18,North,0,0.0,0.0,75,0.00,,,0.00,pywws,2013-08-11 07:51:00,
2013-08-11 03:56:00,62.4,54.8,30.18,North,0,0.0,0.7,76,0.00,,,0.00,pywws,2013-08-11 07:56:00,
2013-08-11 04:02:00,62.2,54.6,30.18,North,0,0.7,1.6,76,0.00,,,0.00,pywws,2013-08-11 08:02:00,
2013-08-11 04:07:00,62.2,54.6,30.18,North,0,1.6,2.2,76,0.00,,,0.00,pywws,2013-08-11 08:07:00,
2013-08-11 04:13:00,62.2,54.6,30.18,North,0,1.6,3.1,76,0.00,,,0.00,pywws,2013-08-11 08:13:00,
2013-08-11 04:18:00,62.2,54.6,30.18,NW,315,1.6,2.2,76,0.00,,,0.00,pywws,2013-08-11 08:18:00,
2013-08-11 04:23:00,62.2,54.6,30.18,North,0,2.2,3.8,76,0.00,,,0.00,pywws,2013-08-11 08:23:00,
2013-08-11 04:29:00,62.2,54.6,30.18,NW,315,2.2,3.8,76,0.00,,,0.00,pywws,2013-08-11 08:29:00,
2013-08-11 04:35:00,62.2,54.6,30.18,North,0,1.6,3.8,76,0.00,,,0.00,pywws,2013-08-11 08:35:00,
2013-08-11 04:40:00,62.2,54.2,30.18,North,0,2.2,3.1,75,0.00,,,0.00,pywws,2013-08-11 08:40:00,
2013-08-11 04:46:00,62.2,54.2,30.18,NW,315,1.6,3.1,75,0.00,,,0.00,pywws,2013-08-11 08:46:00,
2013-08-11 04:51:00,62.2,54.2,30.19,NW,315,1.6,3.1,75,0.00,,,0.00,pywws,2013-08-11 08:51:00,
2013-08-11 04:57:00,62.4,54.4,30.19,North,0,0.7,2.2,75,0.00,,,0.00,pywws,2013-08-11 08:57:00,
2013-08-11 05:03:00,62.4,54.0,30.19,East,90,3.1,5.4,74,0.00,,,0.00,pywws,2013-08-11 09:03:00,
2013-08-11 05:08:00,62.4,54.0,30.19,North,0,3.1,4.5,74,0.00,,,0.00,pywws,2013-08-11 09:08:00,
2013-08-11 05:14:00,62.4,54.0,30.19,NW,315,3.1,5.4,74,0.00,,,0.00,pywws,2013-08-11 09:14:00,
2013-08-11 05:19:00,62.2,53.8,30.20,NW,315,3.1,4.5,74,0.00,,,0.00,pywws,2013-08-11 09:19:00,
2013-08-11 05:25:00,62.2,53.8,30.20,North,0,2.2,3.1,74,0.00,,,0.00,pywws,2013-08-11 09:25:00,
2013-08-11 05:30:00,62.2,53.8,30.20,North,0,1.6,3.1,74,0.00,,,0.00,pywws,2013-08-11 09:30:00,
2013-08-11 05:35:00,62.1,53.7,30.20,NW,315,2.2,3.1,74,0.00,,,0.00,pywws,2013-08-11 09:35:00,
2013-08-11 05:41:00,61.9,53.5,30.20,North,0,2.2,3.1,74,0.00,,,0.00,pywws,2013-08-11 09:41:00,
2013-08-11 05:47:00,61.7,53.7,30.20,North,0,0.7,1.6,75,0.00,,,0.00,pywws,2013-08-11 09:47:00,
2013-08-11 05:52:00,61.5,53.5,30.20,NW,315,0.7,1.6,75,0.00,,,0.00,pywws,2013-08-11 09:52:00,
2013-08-11 05:58:00,61.3,53.3,30.20,North,0,0.0,0.7,75,0.00,,,0.00,pywws,2013-08-11 09:58:00,
2013-08-11 06:03:00,61.2,53.2,30.21,NE,45,0.7,1.6,75,0.00,,,0.00,pywws,2013-08-11 10:03:00,
2013-08-11 06:09:00,61.0,53.4,30.21,NW,315,0.0,0.7,76,0.00,,,0.00,pywws,2013-08-11 10:09:00,
2013-08-11 06:15:00,60.8,53.2,30.21,West,270,0.0,0.0,76,0.00,,,0.00,pywws,2013-08-11 10:15:00,
2013-08-11 06:20:00,60.6,53.7,30.21,NW,315,0.0,0.0,78,0.00,,,0.00,pywws,2013-08-11 10:20:00,
2013-08-11 06:27:00,60.4,53.9,30.21,NW,315,0.7,1.6,79,0.00,,,0.00,pywws,2013-08-11 10:27:00,
2013-08-11 06:33:00,60.3,53.7,30.21,NW,315,0.7,1.6,79,0.00,,,0.00,pywws,2013-08-11 10:33:00,
2013-08-11 06:38:00,60.3,53.7,30.21,West,270,0.0,0.0,79,0.00,,,0.00,pywws,2013-08-11 10:38:00,
2013-08-11 06:43:00,60.3,54.1,30.22,East,90,0.0,0.7,80,0.00,,,0.00,pywws,2013-08-11 10:43:00,
2013-08-11 06:49:00,60.3,54.1,30.22,East,90,0.0,0.0,80,0.00,,,0.00,pywws,2013-08-11 10:49:00,
2013-08-11 06:55:00,60.4,54.6,30.22,East,90,0.0,0.0,81,0.00,,,0.00,pywws,2013-08-11 10:55:00,
2013-08-11 07:00:00,60.6,55.1,30.22,East,90,0.0,0.0,82,0.00,,,0.00,pywws,2013-08-11 11:00:00,
2013-08-11 07:06:00,60.8,54.9,30.22,East,90,0.0,0.0,81,0.00,,,0.00,pywws,2013-08-11 11:06:00,
2013-08-11 07:12:00,60.8,55.3,30.22,North,0,1.6,2.2,82,0.00,,,0.00,pywws,2013-08-11 11:12:00,
2013-08-11 07:17:00,61.2,55.3,30.22,North,0,2.2,3.1,81,0.00,,,0.00,pywws,2013-08-11 11:17:00,
2013-08-11 07:23:00,61.3,55.1,30.22,North,0,1.6,3.1,80,0.00,,,0.00,pywws,2013-08-11 11:23:00,
2013-08-11 07:28:00,61.7,55.1,30.22,East,90,0.7,2.2,79,0.00,,,0.00,pywws,2013-08-11 11:28:00,
2013-08-11 07:34:00,61.9,54.6,30.22,NW,315,1.6,2.2,77,0.00,,,0.00,pywws,2013-08-11 11:34:00,
2013-08-11 07:39:00,62.2,54.9,30.22,North,0,2.2,3.1,77,0.00,,,0.00,pywws,2013-08-11 11:39:00,
2013-08-11 07:44:00,62.4,54.8,30.22,NNE,22,0.0,0.7,76,0.00,,,0.00,pywws,2013-08-11 11:44:00,
2013-08-11 07:50:00,62.6,54.6,30.22,NE,45,0.7,1.6,75,0.00,,,0.00,pywws,2013-08-11 11:50:00,
2013-08-11 07:55:00,62.8,54.7,30.22,North,0,3.1,7.6,75,0.00,,,0.00,pywws,2013-08-11 11:55:00,
2013-08-11 08:02:00,63.1,54.3,30.22,North,0,3.1,6.9,73,0.00,,,0.00,pywws,2013-08-11 12:02:00,
2013-08-11 08:08:00,63.5,54.7,30.22,NW,315,2.2,3.1,73,0.00,,,0.00,pywws,2013-08-11 12:08:00,
2013-08-11 08:13:00,63.7,54.9,30.22,NE,45,2.2,3.8,73,0.00,,,0.00,pywws,2013-08-11 12:13:00,
2013-08-11 08:20:00,63.9,54.7,30.22,North,0,3.8,4.5,72,0.00,,,0.00,pywws,2013-08-11 12:20:00,
2013-08-11 08:25:00,64.2,55.0,30.22,East,90,1.6,2.2,72,0.00,,,0.00,pywws,2013-08-11 12:25:00,
2013-08-11 08:30:00,64.9,55.3,30.22,North,0,1.6,3.1,71,0.00,,,0.00,pywws,2013-08-11 12:30:00,
2013-08-11 08:35:00,65.5,55.4,30.22,NE,45,0.7,2.2,70,0.00,,,0.00,pywws,2013-08-11 12:35:00,
2013-08-11 08:41:00,66.6,56.5,30.22,NW,315,2.2,3.8,70,0.00,,,0.00,pywws,2013-08-11 12:41:00,
2013-08-11 08:47:00,66.9,55.6,30.23,East,90,1.6,2.2,67,0.00,,,0.00,pywws,2013-08-11 12:47:00,
2013-08-11 08:52:00,67.6,56.7,30.22,North,0,1.6,2.2,68,0.00,,,0.00,pywws,2013-08-11 12:52:00,
2013-08-11 08:57:00,68.2,56.8,30.22,SE,135,3.1,3.8,67,0.00,,,0.00,pywws,2013-08-11 12:57:00,
2013-08-11 09:03:00,69.4,57.6,30.22,SE,135,1.6,2.2,66,0.00,,,0.00,pywws,2013-08-11 13:03:00,
2013-08-11 09:08:00,70.0,56.4,30.22,North,0,2.2,3.1,62,0.00,,,0.00,pywws,2013-08-11 13:08:00,
2013-08-11 09:14:00,70.3,56.7,30.22,NE,45,0.0,1.6,62,0.00,,,0.00,pywws,2013-08-11 13:14:00,
2013-08-11 09:19:00,70.9,55.8,30.22,East,90,1.6,3.1,59,0.00,,,0.00,pywws,2013-08-11 13:19:00,
2013-08-11 09:24:00,71.8,56.2,30.22,SE,135,0.7,1.6,58,0.00,,,0.00,pywws,2013-08-11 13:24:00,
2013-08-11 09:30:00,72.5,56.4,30.22,East,90,2.2,3.8,57,0.00,,,0.00,pywws,2013-08-11 13:30:00,
2013-08-11 09:35:00,73.2,58.0,30.22,NE,45,1.6,2.2,59,0.00,,,0.00,pywws,2013-08-11 13:35:00,
2013-08-11 09:40:00,74.1,56.9,30.22,SW,225,0.7,2.2,55,0.00,,,0.00,pywws,2013-08-11 13:40:00,
2013-08-11 09:46:00,73.9,55.7,30.22,NE,45,0.7,1.6,53,0.00,,,0.00,pywws,2013-08-11 13:46:00,
2013-08-11 09:51:00,73.9,56.7,30.22,North,0,0.0,1.6,55,0.00,,,0.00,pywws,2013-08-11 13:51:00,
2013-08-11 09:57:00,74.7,57.4,30.22,East,90,0.0,0.7,55,0.00,,,0.00,pywws,2013-08-11 13:57:00,
2013-08-11 10:02:00,75.4,57.6,30.22,North,0,3.1,4.5,54,0.00,,,0.00,pywws,2013-08-11 14:02:00,
2013-08-11 10:07:00,75.4,58.1,30.22,East,90,1.6,3.1,55,0.00,,,0.00,pywws,2013-08-11 14:07:00,
2013-08-11 10:13:00,76.1,57.2,30.22,SSE,158,0.7,2.2,52,0.00,,,0.00,pywws,2013-08-11 14:13:00,
2013-08-11 10:19:00,76.5,57.0,30.22,East,90,3.1,4.5,51,0.00,,,0.00,pywws,2013-08-11 14:19:00,
2013-08-11 10:24:00,76.8,57.8,30.22,NE,45,1.6,2.2,52,0.00,,,0.00,pywws,2013-08-11 14:24:00,
2013-08-11 10:29:00,77.0,56.9,30.22,SE,135,1.6,3.8,50,0.00,,,0.00,pywws,2013-08-11 14:29:00,
2013-08-11 10:35:00,77.0,58.0,30.22,East,90,1.6,2.2,52,0.00,,,0.00,pywws,2013-08-11 14:35:00,
2013-08-11 10:40:00,77.5,58.5,30.22,North,0,0.7,2.2,52,0.00,,,0.00,pywws,2013-08-11 14:40:00,
2013-08-11 10:45:00,77.7,54.7,30.22,North,0,1.6,2.2,45,0.00,,,0.00,pywws,2013-08-11 14:45:00,
2013-08-11 10:51:00,77.2,54.2,30.22,NW,315,3.1,5.4,45,0.00,,,0.00,pywws,2013-08-11 14:51:00,
2013-08-11 10:57:00,77.0,55.2,30.22,NE,45,0.7,1.6,47,0.00,,,0.00,pywws,2013-08-11 14:57:00,
2013-08-11 11:02:00,77.0,55.8,30.22,SW,225,3.1,5.4,48,0.00,,,0.00,pywws,2013-08-11 15:02:00,
2013-08-11 11:07:00,77.0,55.2,30.22,North,0,2.2,4.5,47,0.00,,,0.00,pywws,2013-08-11 15:07:00,
2013-08-11 11:13:00,76.8,56.2,30.22,South,180,1.6,2.2,49,0.00,,,0.00,pywws,2013-08-11 15:13:00,
2013-08-11 11:19:00,77.2,56.5,30.21,East,90,0.7,1.6,49,0.00,,,0.00,pywws,2013-08-11 15:19:00,
2013-08-11 11:24:00,77.5,56.3,30.22,NW,315,1.6,3.1,48,0.00,,,0.00,pywws,2013-08-11 15:24:00,
2013-08-11 11:30:00,77.5,56.9,30.22,SW,225,3.8,5.4,49,0.00,,,0.00,pywws,2013-08-11 15:30:00,
2013-08-11 11:35:00,77.2,55.4,30.22,East,90,0.7,1.6,47,0.00,,,0.00,pywws,2013-08-11 15:35:00,
2013-08-11 11:41:00,77.0,56.4,30.22,SE,135,0.0,1.6,49,0.00,,,0.00,pywws,2013-08-11 15:41:00,
2013-08-11 11:46:00,76.6,56.0,30.21,West,270,0.0,0.7,49,0.00,,,0.00,pywws,2013-08-11 15:46:00,
2013-08-11 11:53:00,76.6,56.6,30.22,West,270,1.6,2.2,50,0.00,,,0.00,pywws,2013-08-11 15:53:00,
2013-08-11 11:59:00,76.3,55.7,30.21,SW,225,1.6,3.1,49,0.00,,,0.00,pywws,2013-08-11 15:59:00,
2013-08-11 12:04:00,76.1,55.5,30.21,West,270,2.2,3.1,49,0.00,,,0.00,pywws,2013-08-11 16:04:00,
2013-08-11 12:09:00,76.3,56.8,30.21,SW,225,3.1,5.4,51,0.00,,,0.00,pywws,2013-08-11 16:09:00,
2013-08-11 12:15:00,76.8,56.2,30.21,SW,225,0.7,1.6,49,0.00,,,0.00,pywws,2013-08-11 16:15:00,
2013-08-11 12:20:00,76.6,57.1,30.21,East,90,1.6,2.2,51,0.00,,,0.00,pywws,2013-08-11 16:20:00,
2013-08-11 12:26:00,76.6,57.1,30.20,West,270,0.7,1.6,51,0.00,,,0.00,pywws,2013-08-11 16:26:00,
2013-08-11 12:31:00,76.8,56.8,30.20,NW,315,1.6,3.1,50,0.00,,,0.00,pywws,2013-08-11 16:31:00,
2013-08-11 12:37:00,77.2,56.5,30.20,North,0,0.7,2.2,49,0.00,,,0.00,pywws,2013-08-11 16:37:00,
2013-08-11 12:42:00,77.2,56.5,30.19,West,270,3.8,6.0,49,0.00,,,0.00,pywws,2013-08-11 16:42:00,
2013-08-11 12:47:00,76.8,56.2,30.19,North,0,1.6,2.2,49,0.00,,,0.00,pywws,2013-08-11 16:47:00,
2013-08-11 12:53:00,76.8,57.3,30.19,East,90,0.0,0.7,51,0.00,,,0.00,pywws,2013-08-11 16:53:00,
2013-08-11 12:59:00,77.2,58.2,30.19,West,270,1.6,3.1,52,0.00,,,0.00,pywws,2013-08-11 16:59:00,
2013-08-11 13:04:00,77.5,56.9,30.19,NW,315,3.8,5.4,49,0.00,,,0.00,pywws,2013-08-11 17:04:00,
2013-08-11 13:10:00,78.1,57.3,30.19,West,270,3.8,6.0,49,0.00,,,0.00,pywws,2013-08-11 17:10:00,
2013-08-11 13:15:00,78.1,56.8,30.19,SW,225,2.2,3.8,48,0.00,,,0.00,pywws,2013-08-11 17:15:00,
2013-08-11 13:21:00,77.9,56.0,30.19,West,270,1.6,3.1,47,0.00,,,0.00,pywws,2013-08-11 17:21:00,
2013-08-11 13:27:00,77.9,56.6,30.19,North,0,4.5,6.0,48,0.00,,,0.00,pywws,2013-08-11 17:27:00,
2013-08-11 13:32:00,77.9,56.6,30.18,NW,315,6.0,9.2,48,0.00,,,0.00,pywws,2013-08-11 17:32:00,
2013-08-11 13:38:00,78.1,56.8,30.19,North,0,1.6,3.1,48,0.00,,,0.00,pywws,2013-08-11 17:38:00,
2013-08-11 13:43:00,78.3,56.4,30.18,NW,315,3.8,4.5,47,0.00,,,0.00,pywws,2013-08-11 17:43:00,
2013-08-11 13:49:00,78.3,56.4,30.18,NW,315,1.6,3.1,47,0.00,,,0.00,pywws,2013-08-11 17:49:00,
2013-08-11 13:55:00,78.6,58.4,30.18,South,180,3.1,5.4,50,0.00,,,0.00,pywws,2013-08-11 17:55:00,
2013-08-11 14:00:00,79.0,56.4,30.17,SW,225,0.7,2.2,46,0.00,,,0.00,pywws,2013-08-11 18:00:00,
2013-08-11 14:06:00,79.5,57.5,30.18,West,270,3.8,5.4,47,0.00,,,0.00,pywws,2013-08-11 18:06:00,
2013-08-11 14:12:00,79.3,56.1,30.18,SW,225,6.9,10.7,45,0.00,,,0.00,pywws,2013-08-11 18:12:00,
2013-08-11 14:18:00,79.3,54.9,30.18,NW,315,3.1,5.4,43,0.00,,,0.00,pywws,2013-08-11 18:18:00,
2013-08-11 14:23:00,79.7,57.7,30.18,West,270,4.5,8.3,47,0.00,,,0.00,pywws,2013-08-11 18:23:00,
2013-08-11 14:29:00,79.5,55.7,30.17,NW,315,4.5,6.9,44,0.00,,,0.00,pywws,2013-08-11 18:29:00,
2013-08-11 14:35:00,79.5,56.9,30.17,West,270,7.6,9.8,46,0.00,,,0.00,pywws,2013-08-11 18:35:00,
2013-08-11 14:40:00,79.7,57.1,30.17,WNW,292,1.6,2.2,46,0.00,,,0.00,pywws,2013-08-11 18:40:00,
2013-08-11 14:45:00,80.4,58.3,30.17,NW,315,4.5,6.9,47,0.00,,,0.00,pywws,2013-08-11 18:45:00,
2013-08-11 14:51:00,80.8,56.8,30.17,WSW,248,3.8,5.4,44,0.00,,,0.00,pywws,2013-08-11 18:51:00,
2013-08-11 14:57:00,80.2,56.9,30.16,SSW,202,2.2,4.5,45,0.00,,,0.00,pywws,2013-08-11 18:57:00,
2013-08-11 15:03:00,80.2,56.9,30.16,SW,225,3.8,5.4,45,0.00,,,0.00,pywws,2013-08-11 19:03:00,
2013-08-11 15:08:00,80.1,58.0,30.16,SW,225,3.1,4.5,47,0.00,,,0.00,pywws,2013-08-11 19:08:00,
2013-08-11 15:14:00,80.1,57.4,30.16,South,180,0.0,2.2,46,0.00,,,0.00,pywws,2013-08-11 19:14:00,
2013-08-11 15:19:00,80.8,57.4,30.15,SW,225,4.5,6.0,45,0.00,,,0.00,pywws,2013-08-11 19:19:00,
2013-08-11 15:25:00,81.1,57.1,30.15,West,270,3.8,6.0,44,0.00,,,0.00,pywws,2013-08-11 19:25:00,
2013-08-11 15:31:00,81.3,57.3,30.15,NW,315,2.2,4.5,44,0.00,,,0.00,pywws,2013-08-11 19:31:00,
2013-08-11 15:37:00,81.3,57.3,30.14,West,270,6.9,10.7,44,0.00,,,0.00,pywws,2013-08-11 19:37:00,
2013-08-11 15:43:00,81.1,56.5,30.15,West,270,3.8,6.9,43,0.00,,,0.00,pywws,2013-08-11 19:43:00,
2013-08-11 15:49:00,81.0,57.0,30.15,West,270,6.9,9.2,44,0.00,,,0.00,pywws,2013-08-11 19:49:00,
2013-08-11 15:54:00,80.6,56.6,30.15,South,180,5.4,6.9,44,0.00,,,0.00,pywws,2013-08-11 19:54:00,
2013-08-11 15:59:00,80.6,56.6,30.14,South,180,5.4,6.9,44,0.00,,,0.00,pywws,2013-08-11 19:59:00,
2013-08-11 16:05:00,81.1,56.5,30.14,WSW,248,5.4,6.9,43,0.00,,,0.00,pywws,2013-08-11 20:05:00,
2013-08-11 16:11:00,81.1,56.5,30.14,NW,315,2.2,4.5,43,0.00,,,0.00,pywws,2013-08-11 20:11:00,
2013-08-11 16:17:00,81.1,57.1,30.14,NW,315,3.1,4.5,44,0.00,,,0.00,pywws,2013-08-11 20:17:00,
2013-08-11 16:23:00,81.0,57.0,30.14,West,270,7.6,9.8,44,0.00,,,0.00,pywws,2013-08-11 20:23:00,
2013-08-11 16:28:00,80.2,56.9,30.14,West,270,5.4,6.0,45,0.00,,,0.00,pywws,2013-08-11 20:28:00,
2013-08-11 16:34:00,79.9,56.6,30.14,West,270,3.1,5.4,45,0.00,,,0.00,pywws,2013-08-11 20:34:00,
2013-08-11 16:40:00,79.5,56.9,30.14,West,270,3.1,5.4,46,0.00,,,0.00,pywws,2013-08-11 20:40:00,
2013-08-11 16:45:00,79.3,57.3,30.14,West,270,2.2,5.4,47,0.00,,,0.00,pywws,2013-08-11 20:45:00,
2013-08-11 16:51:00,79.5,56.9,30.14,NW,315,1.6,3.1,46,0.00,,,0.00,pywws,2013-08-11 20:51:00,
2013-08-11 16:56:00,79.7,57.1,30.14,NW,315,5.4,7.6,46,0.00,,,0.00,pywws,2013-08-11 20:56:00,
2013-08-11 17:01:00,79.7,57.1,30.14,NW,315,6.9,8.3,46,0.00,,,0.00,pywws,2013-08-11 21:01:00,
2013-08-11 17:07:00,79.5,57.5,30.14,North,0,4.5,6.0,47,0.00,,,0.00,pywws,2013-08-11 21:07:00,
2013-08-11 17:12:00,79.5,57.5,30.14,West,270,3.1,4.5,47,0.00,,,0.00,pywws,2013-08-11 21:12:00,
2013-08-11 17:18:00,79.3,57.3,30.13,West,270,2.2,4.5,47,0.00,,,0.00,pywws,2013-08-11 21:18:00,
2013-08-11 17:23:00,79.3,57.9,30.14,West,270,3.1,3.8,48,0.00,,,0.00,pywws,2013-08-11 21:23:00,
2013-08-11 17:29:00,79.3,57.9,30.13,NW,315,3.8,6.0,48,0.00,,,0.00,pywws,2013-08-11 21:29:00,
2013-08-11 17:35:00,79.3,57.3,30.13,North,0,0.0,0.7,47,0.00,,,0.00,pywws,2013-08-11 21:35:00,
2013-08-11 17:40:00,79.3,57.3,30.13,West,270,3.8,5.4,47,0.00,,,0.00,pywws,2013-08-11 21:40:00,
2013-08-11 17:45:00,79.3,57.9,30.13,NW,315,0.7,1.6,48,0.00,,,0.00,pywws,2013-08-11 21:45:00,
2013-08-11 17:51:00,79.5,58.1,30.13,West,270,1.6,3.1,48,0.00,,,0.00,pywws,2013-08-11 21:51:00,
2013-08-11 17:56:00,79.7,58.2,30.13,North,0,2.2,3.1,48,0.00,,,0.00,pywws,2013-08-11 21:56:00,
2013-08-11 18:01:00,79.9,58.4,30.13,NW,315,1.6,3.1,48,0.00,,,0.00,pywws,2013-08-11 22:01:00,
2013-08-11 18:07:00,80.1,58.6,30.13,WNW,292,3.8,7.6,48,0.00,,,0.00,pywws,2013-08-11 22:07:00,
2013-08-11 18:12:00,80.4,58.9,30.12,SE,135,1.6,2.2,48,0.00,,,0.00,pywws,2013-08-11 22:12:00,
2013-08-11 18:18:00,80.4,58.3,30.13,West,270,0.7,2.2,47,0.00,,,0.00,pywws,2013-08-11 22:18:00,
2013-08-11 18:23:00,80.4,58.9,30.12,West,270,3.1,4.5,48,0.00,,,0.00,pywws,2013-08-11 22:23:00,
2013-08-11 18:29:00,80.1,58.6,30.12,West,270,2.2,3.8,48,0.00,,,0.00,pywws,2013-08-11 22:29:00,
2013-08-11 18:34:00,79.9,58.4,30.13,NW,315,0.7,2.2,48,0.00,,,0.00,pywws,2013-08-11 22:34:00,
2013-08-11 18:39:00,79.5,58.1,30.12,East,90,1.6,3.8,48,0.00,,,0.00,pywws,2013-08-11 22:39:00,
2013-08-11 18:45:00,79.2,58.3,30.13,West,270,3.1,3.8,49,0.00,,,0.00,pywws,2013-08-11 22:45:00,
2013-08-11 18:51:00,78.8,58.6,30.12,SW,225,0.7,1.6,50,0.00,,,0.00,pywws,2013-08-11 22:51:00,
2013-08-11 18:56:00,78.8,58.0,30.13,West,270,2.2,3.1,49,0.00,,,0.00,pywws,2013-08-11 22:56:00,
2013-08-11 19:02:00,78.8,58.0,30.13,West,270,1.6,2.2,49,0.00,,,0.00,pywws,2013-08-11 23:02:00,
2013-08-11 19:07:00,78.6,59.0,30.13,SW,225,0.7,1.6,51,0.00,,,0.00,pywws,2013-08-11 23:07:00,
2013-08-11 19:12:00,78.4,58.8,30.13,NW,315,1.6,2.2,51,0.00,,,0.00,pywws,2013-08-11 23:12:00,
2013-08-11 19:18:00,78.3,58.6,30.12,NW,315,0.0,1.6,51,0.00,,,0.00,pywws,2013-08-11 23:18:00,
2013-08-11 19:24:00,77.9,58.8,30.13,NW,315,0.7,2.2,52,0.00,,,0.00,pywws,2013-08-11 23:24:00,
2013-08-11 19:29:00,77.9,58.8,30.12,West,270,0.0,0.7,52,0.00,,,0.00,pywws,2013-08-11 23:29:00,
2013-08-11 19:35:00,77.9,58.8,30.13,NE,45,1.6,3.1,52,0.00,,,0.00,pywws,2013-08-11 23:35:00,
2013-08-11 19:40:00,77.7,59.2,30.12,North,0,0.7,1.6,53,0.00,,,0.00,pywws,2013-08-11 23:40:00,
2013-08-11 19:46:00,77.5,59.0,30.13,NE,45,0.0,0.7,53,0.00,,,0.00,pywws,2013-08-11 23:46:00,
2013-08-11 19:51:00,77.4,58.9,30.13,SE,135,0.0,0.7,53,0.00,,,0.00,pywws,2013-08-11 23:51:00,
2013-08-11 19:57:00,77.0,59.1,30.13,NW,315,0.0,0.7,54,0.00,,,0.00,pywws,2013-08-11 23:57:00,
2013-08-11 20:03:00,76.8,59.4,30.13,NNE,22,0.0,0.7,55,0.00,,,0.00,pywws,2013-08-12 00:03:00,
2013-08-11 20:08:00,76.5,59.6,30.13,East,90,0.0,0.7,56,0.00,,,0.00,pywws,2013-08-12 00:08:00,
2013-08-11 20:14:00,76.3,59.4,30.13,SW,225,0.7,1.6,56,0.00,,,0.00,pywws,2013-08-12 00:14:00,
2013-08-11 20:19:00,76.1,59.7,30.13,SE,135,0.0,0.7,57,0.00,,,0.00,pywws,2013-08-12 00:19:00,
2013-08-11 20:25:00,75.9,59.6,30.13,SW,225,0.7,1.6,57,0.00,,,0.00,pywws,2013-08-12 00:25:00,
2013-08-11 20:31:00,75.9,60.1,30.13,SW,225,2.2,3.1,58,0.00,,,0.00,pywws,2013-08-12 00:31:00,
2013-08-11 20:36:00,75.9,60.1,30.13,SE,135,0.7,2.2,58,0.00,,,0.00,pywws,2013-08-12 00:36:00,
2013-08-11 20:41:00,75.7,60.4,30.14,SW,225,2.2,3.8,59,0.00,,,0.00,pywws,2013-08-12 00:41:00,
2013-08-11 20:47:00,75.7,60.9,30.14,South,180,0.7,1.6,60,0.00,,,0.00,pywws,2013-08-12 00:47:00,
2013-08-11 20:52:00,75.6,60.7,30.14,SW,225,0.7,1.6,60,0.00,,,0.00,pywws,2013-08-12 00:52:00,
2013-08-11 20:58:00,75.4,61.0,30.14,South,180,0.7,1.6,61,0.00,,,0.00,pywws,2013-08-12 00:58:00,
2013-08-11 21:03:00,75.2,61.3,30.14,SW,225,1.6,3.1,62,0.00,,,0.00,pywws,2013-08-12 01:03:00,
2013-08-11 21:09:00,75.0,61.6,30.14,North,0,0.7,2.2,63,0.00,,,0.00,pywws,2013-08-12 01:09:00,
2013-08-11 21:14:00,74.8,61.4,30.14,South,180,0.7,1.6,63,0.00,,,0.00,pywws,2013-08-12 01:14:00,
2013-08-11 21:20:00,74.7,61.2,30.14,South,180,0.7,1.6,63,0.00,,,0.00,pywws,2013-08-12 01:20:00,
2013-08-11 21:27:00,74.5,61.5,30.15,NW,315,0.7,2.2,64,0.00,,,0.00,pywws,2013-08-12 01:27:00,
2013-08-11 21:32:00,74.1,61.1,30.15,SW,225,0.0,0.7,64,0.00,,,0.00,pywws,2013-08-12 01:32:00,
2013-08-11 21:38:00,73.9,61.4,30.15,SSW,202,0.0,1.6,65,0.00,,,0.00,pywws,2013-08-12 01:38:00,
2013-08-11 21:43:00,73.8,61.2,30.15,North,0,1.6,3.8,65,0.00,,,0.00,pywws,2013-08-12 01:43:00,
2013-08-11 21:49:00,73.6,61.1,30.15,West,270,3.1,5.4,65,0.00,,,0.00,pywws,2013-08-12 01:49:00,
2013-08-11 21:55:00,73.6,61.5,30.15,North,0,0.0,0.7,66,0.00,,,0.00,pywws,2013-08-12 01:55:00,
2013-08-11 22:00:00,73.4,61.3,30.15,West,270,0.0,1.6,66,0.00,,,0.00,pywws,2013-08-12 02:00:00,
2013-08-11 22:06:00,73.4,61.3,30.15,South,180,0.7,1.6,66,0.00,,,0.00,pywws,2013-08-12 02:06:00,
2013-08-11 22:11:00,73.2,60.7,30.14,East,90,1.6,3.1,65,0.00,,,0.00,pywws,2013-08-12 02:11:00,
2013-08-11 22:17:00,73.2,60.7,30.14,SE,135,0.7,1.6,65,0.00,,,0.00,pywws,2013-08-12 02:17:00,
2013-08-11 22:22:00,73.0,61.0,30.14,SE,135,0.7,2.2,66,0.00,,,0.00,pywws,2013-08-12 02:22:00,
2013-08-11 22:27:00,73.0,61.0,30.14,NE,45,0.7,3.1,66,0.00,,,0.00,pywws,2013-08-12 02:27:00,
2013-08-11 22:33:00,73.0,61.0,30.14,SSE,158,0.7,1.6,66,0.00,,,0.00,pywws,2013-08-12 02:33:00,
2013-08-11 22:39:00,73.0,61.0,30.14,SE,135,0.7,1.6,66,0.00,,,0.00,pywws,2013-08-12 02:39:00,
2013-08-11 22:44:00,72.9,61.2,30.14,NE,45,0.7,1.6,67,0.00,,,0.00,pywws,2013-08-12 02:44:00,
2013-08-11 22:50:00,72.7,61.1,30.14,SE,135,0.0,0.7,67,0.00,,,0.00,pywws,2013-08-12 02:50:00,
2013-08-11 22:55:00,72.5,60.9,30.14,East,90,0.7,1.6,67,0.00,,,0.00,pywws,2013-08-12 02:55:00,
2013-08-11 23:00:00,72.5,60.9,30.14,East,90,0.0,0.7,67,0.00,,,0.00,pywws,2013-08-12 03:00:00,
2013-08-11 23:06:00,72.3,61.2,30.14,SW,225,1.6,2.2,68,0.00,,,0.00,pywws,2013-08-12 03:06:00,
2013-08-11 23:11:00,72.3,61.2,30.14,East,90,0.7,1.6,68,0.00,,,0.00,pywws,2013-08-12 03:11:00,
2013-08-11 23:16:00,72.1,61.4,30.14,SE,135,0.7,2.2,69,0.00,,,0.00,pywws,2013-08-12 03:16:00,
2013-08-11 23:21:00,72.1,61.4,30.14,SW,225,0.7,1.6,69,0.00,,,0.00,pywws,2013-08-12 03:21:00,
2013-08-11 23:27:00,72.1,61.8,30.14,South,180,0.7,2.2,70,0.00,,,0.00,pywws,2013-08-12 03:27:00,
2013-08-11 23:32:00,72.3,62.0,30.14,ESE,112,0.7,1.6,70,0.00,,,0.00,pywws,2013-08-12 03:32:00,
2013-08-11 23:39:00,72.1,62.2,30.13,South,180,1.6,2.2,71,0.00,,,0.00,pywws,2013-08-12 03:39:00,
2013-08-11 23:44:00,72.1,62.2,30.13,SE,135,0.0,0.0,71,0.00,,,0.00,pywws,2013-08-12 03:44:00,
2013-08-11 23:50:00,72.1,62.2,30.13,SE,135,0.0,0.0,71,0.00,,,0.00,pywws,2013-08-12 03:50:00,
2013-08-11 23:55:00,71.8,61.9,30.13,East,90,0.0,0.7,71,0.00,,,0.00,pywws,2013-08-12 03:55:00,